Station: Edithburgh  

  Atmospheric Gas Attenuation - ITU Rec 676-11   ----------------- dB/100km -----------------
Date Time Temp RH % AH g/m3 Dew Point Wind Direction Speed kph Gust kph Barometer mB Rainfall Since 9am 24GHz 47GHz 76GHz 122GHz 134GHz 241GHz
10/05 03:20 14.6 87 10.89 12.4 13 15 1028.5 0.4 24.4 30.1 49.7 130.5 130.1 449.3
10/05 03:10 14.8 87 11.02 12.6 17 20 1028.4 0.4 24.7 30.2 50.1 131.7 131.6 454.6
10/05 03:00 14.7 87 10.95 12.6 11 15 1028.5 0.4 24.5 30.2 49.9 131.1 130.8 451.7
10/05 02:50 14.7 85 10.7 12.3 13 13 1028.5 0.4 24.0 29.7 48.8 128.2 127.2 439.3
10/05 02:40 14.9 85 10.83 12.5 11 15 1028.5 0.4 24.3 29.9 49.2 129.3 128.7 444.6
10/05 02:30 14.9 87 11.09 12.8 11 17 1028.5 0.4 24.8 30.3 50.3 132.3 132.5 457.6
10/05 02:20 14.6 87 10.89 12.4 9 11 1028.7 0.4 24.4 30.1 49.7 130.6 130.1 449.4
10/05 02:10 14.3 87 10.69 12.1 11 13 1028.8 0.4 24.0 29.9 49.0 128.8 127.8 441.2
10/05 02:00 14.1 88 10.68 12.1 13 17 1028.8 0.4 24.0 29.9 49.1 129.0 128.0 441.8
10/05 01:50 14.1 89 10.8 12.3 11 11 1028.8 0.4 24.3 30.1 49.6 130.4 129.7 447.8
10/05 01:40 14.1 89 10.8 12.3 11 13 1028.9 0.4 24.3 30.1 49.6 130.4 129.7 447.9
10/05 01:30 14.2 89 10.87 12.4 9 13 1028.9 0.4 24.4 30.2 49.8 131.0 130.5 450.8
10/05 01:20 14.4 89 11 12.7 7 9 1029 0.4 24.7 30.4 50.3 132.2 132.1 456.2
10/05 01:10 14.5 89 11.07 12.8 11 13 1029.1 0.4 24.8 30.5 50.5 132.9 132.9 459.1
10/05 01:00 14.5 90 11.19 12.9 15 17 1029.1 0.4 25.1 30.7 51.1 134.3 134.7 465.2
10/05 00:50 14.7 91 11.46 13.2 17 19 1029.2 0.4 25.6 31.1 52.1 137.1 138.2 477.7
10/05 00:40 14.9 91 11.6 13.4 11 13 1029.1 0.4 25.9 31.3 52.6 138.4 139.9 483.5
10/05 00:30 14.8 91 11.53 13.3 7 15 1029.2 0.4 25.8 31.2 52.4 137.8 139.1 480.6
10/05 00:20 14.7 92 11.58 13.4 6 6 1029.2 0.4 25.9 31.3 52.7 138.5 140.0 483.8
10/05 00:10 14.5 92 11.44 13.3 7 9 1029.2 0.4 25.6 31.1 52.2 137.2 138.3 477.9
10/05 00:00 14.1 92 11.17 12.8 2 4 1029.2 0.4 25.0 30.8 51.2 134.8 135.1 466.6
09/05 23:50 14.2 92 11.23 12.9 0 0 1029.3 0.4 25.2 30.9 51.4 135.3 135.8 469.1
09/05 23:40 14.3 92 11.3 13 4 4 1029.4 0.4 25.3 31.0 51.7 136.0 136.6 472.1
09/05 23:30 14.3 91 11.18 12.9 11 19 1029.4 0.4 25.1 30.7 51.2 134.5 134.9 466.0
09/05 23:20 14.8 88 11.15 12.8 19 22 1029.4 0.2 25.0 30.5 50.7 133.3 133.6 461.5
09/05 23:10 14.7 83 10.45 11.8 11 15 1029.4 0.2 23.5 29.3 47.7 125.4 123.8 427.3
09/05 23:00 14.8 82 10.39 11.8 13 17 1029.4 0.2 23.3 29.2 47.4 124.6 122.8 423.8
09/05 22:50 14.8 82 10.39 11.7 13 15 1029.4 0.2 23.3 29.2 47.4 124.6 122.8 423.8
09/05 22:40 14.8 82 10.39 11.7 15 17 1029.4 0.2 23.3 29.2 47.4 124.6 122.8 423.8
09/05 22:30 14.7 82 10.32 11.7 13 20 1029.5 0.2 23.2 29.1 47.2 123.9 122.0 420.9
09/05 22:20 14.9 82 10.45 11.8 15 17 1029.5 0.2 23.5 29.3 47.6 125.1 123.5 426.2
09/05 22:10 15.1 83 10.71 12.2 13 15 1029.5 0.2 24.0 29.6 48.6 127.7 126.8 437.9
09/05 22:00 15.1 82 10.58 12.1 15 22 1029.4 0.2 23.7 29.4 48.0 126.2 125.0 431.4
09/05 21:50 15 82 10.51 11.9 19 20 1029.3 0.2 23.6 29.3 47.8 125.6 124.1 428.5
09/05 21:40 15 83 10.64 12.1 15 19 1029.3 0.2 23.9 29.6 48.4 127.1 126.0 434.9
09/05 21:30 15.1 82 10.58 12.1 15 22 1029.2 0.2 23.7 29.4 48.0 126.2 125.0 431.4
09/05 21:20 15.1 82 10.58 12 19 20 1029.3 0.2 23.7 29.4 48.0 126.2 125.0 431.4
09/05 21:10 15 84 10.77 12.3 15 17 1029.3 0.2 24.1 29.8 48.9 128.6 127.8 441.3
09/05 21:00 15.2 84 10.9 12.5 17 22 1029.3 0.2 24.4 29.9 49.4 129.7 129.3 446.6
09/05 20:50 14.9 85 10.83 12.4 19 22 1029.3 0.2 24.3 29.9 49.2 129.4 128.8 444.9
09/05 20:40 14.8 85 10.77 12.3 13 15 1029.4 0.2 24.1 29.8 49.1 128.9 128.2 442.5
09/05 20:30 15 85 10.9 12.5 17 20 1029.4 0.2 24.4 30.0 49.5 130.1 129.7 447.8
09/05 20:20 15.1 88 11.35 13.1 11 15 1029.5 0.2 25.4 30.8 51.4 135.2 135.9 469.8
09/05 20:10 14.9 89 11.34 13.1 15 17 1029.5 0.2 25.4 30.8 51.5 135.4 136.2 470.5
09/05 20:00 14.9 88 11.22 12.9 20 26 1029.5 0.2 25.1 30.6 51.0 134.0 134.4 464.4
09/05 19:50 15.1 85 10.97 12.7 19 20 1029.6 0.2 24.6 30.1 49.7 130.8 130.5 450.8
09/05 19:40 15.2 85 11.03 12.7 17 20 1029.5 0.2 24.7 30.2 49.9 131.3 131.2 453.1
09/05 19:30 15.3 86 11.23 13 17 24 1029.5 0.2 25.1 30.5 50.7 133.4 133.9 462.5
09/05 19:20 15.4 84 11.04 12.7 19 22 1029.5 0.2 24.7 30.1 49.8 131.0 131.0 452.5
09/05 19:10 14.9 84 10.71 12.2 13 15 1029.6 0.2 24.0 29.7 48.7 128.1 127.2 439.0
09/05 19:00 15.2 84 10.9 12.5 15 20 1029.5 0.2 24.4 29.9 49.4 129.8 129.3 446.7
09/05 18:50 15.3 85 11.1 12.8 15 17 1029.5 0.2 24.8 30.3 50.2 131.9 132.0 456.0
09/05 18:40 15.1 84 10.84 12.4 17 19 1029.5 0.2 24.3 29.9 49.2 129.2 128.7 444.3
09/05 18:30 15.3 84 10.97 12.6 17 20 1029.5 0.2 24.5 30.0 49.6 130.4 130.2 449.6
09/05 18:20 15.4 85 11.17 12.9 17 20 1029.3 0.2 25.0 30.3 50.4 132.5 132.8 458.9
09/05 18:10 15.3 84 10.97 12.6 15 19 1029.2 0.2 24.5 30.0 49.6 130.4 130.1 449.5
09/05 18:00 15.4 85 11.17 12.9 15 20 1029.2 0.2 25.0 30.3 50.4 132.5 132.8 458.8
09/05 17:50 15.4 83 10.9 12.5 15 17 1029.1 0.2 24.4 29.9 49.2 129.4 129.0 445.4
09/05 17:40 15.4 85 11.17 13 15 17 1029.1 0.2 25.0 30.3 50.4 132.5 132.8 458.8
09/05 17:30 15.6 87 11.57 13.4 15 20 1029.1 0.2 25.8 31.0 52.0 136.8 138.2 477.6
09/05 17:20 15.7 86 11.51 13.3 15 17 1029.1 0.2 25.7 30.8 51.7 135.9 137.1 474.0
09/05 17:10 15.4 85 11.17 12.9 15 17 1029.1 0.2 25.0 30.3 50.4 132.5 132.8 458.8
09/05 17:00 15.6 86 11.44 13.3 15 20 1029 0.2 25.5 30.7 51.4 135.3 136.3 471.0
09/05 16:50 16.1 84 11.51 13.4 17 19 1028.9 0.2 25.7 30.7 51.4 135.2 136.4 471.5
09/05 16:40 15.9 84 11.38 13.3 9 15 1028.9 0.2 25.4 30.5 51.0 134.0 134.9 466.2
09/05 16:30 16 85 11.58 13.5 11 17 1028.9 0.2 25.8 30.8 51.8 136.2 137.6 475.6
09/05 16:20 16.5 79 11.09 12.8 13 15 1028.8 0.2 24.7 29.8 49.3 129.7 129.7 448.3
09/05 16:10 16.4 78 10.89 12.5 15 19 1028.8 0.2 24.3 29.5 48.5 127.6 127.1 439.1
09/05 16:00 16.6 78 11.02 12.8 15 20 1028.6 0.2 24.6 29.6 49.0 128.7 128.6 444.2
09/05 15:50 16.9 77 11.07 12.8 19 20 1028.7 0.2 24.7 29.6 49.0 128.8 128.8 445.0
09/05 15:40 17.2 75 10.98 12.7 17 19 1028.7 0.2 24.5 29.4 48.4 127.3 127.0 438.9
09/05 15:30 17.2 74 10.84 12.5 15 19 1028.6 0.2 24.2 29.1 47.8 125.7 125.1 432.1
09/05 15:20 17.1 72 10.48 12 15 15 1028.8 0.2 23.4 28.6 46.4 121.9 120.3 415.5
09/05 15:10 17.5 73 10.88 12.6 11 17 1028.8 0.2 24.2 29.1 47.8 125.7 125.2 432.5
09/05 15:00 17.1 72 10.48 12 15 20 1028.8 0.2 23.4 28.6 46.4 121.9 120.3 415.5
09/05 14:50 17.3 72 10.61 12.2 17 19 1028.8 0.2 23.7 28.7 46.8 123.0 121.8 420.6
09/05 14:40 17.2 71 10.4 11.9 15 17 1028.9 0.2 23.2 28.4 46.0 120.9 119.1 411.2
09/05 14:30 17.3 71 10.46 12 13 20 1028.9 0.2 23.3 28.5 46.2 121.4 119.8 413.5
09/05 14:20 17.3 72 10.61 12.2 17 19 1029 0.2 23.7 28.7 46.8 123.0 121.8 420.7
09/05 14:10 17.3 74 10.9 12.6 17 19 1029.1 0.2 24.3 29.2 48.0 126.3 125.8 434.6
09/05 14:00 16.9 74 10.64 12.2 11 17 1029.1 0.2 23.7 28.9 47.2 124.0 122.9 424.3
09/05 13:50 17.5 73 10.88 12.6 17 19 1029.1 0.2 24.2 29.1 47.8 125.7 125.2 432.6
09/05 13:40 16.9 79 11.36 13.2 11 13 1029.2 0.2 25.3 30.1 50.2 132.1 132.9 459.3
09/05 13:30 16.7 77 10.94 12.7 11 17 1029.2 0.2 24.4 29.5 48.6 127.7 127.4 440.0
09/05 13:20 17 79 11.43 13.3 13 17 1029.3 0.2 25.4 30.2 50.5 132.8 133.7 462.2
09/05 13:10 16.6 79 11.16 12.9 13 17 1029.5 0.2 24.9 29.9 49.6 130.4 130.6 451.4
09/05 13:00 16.3 78 10.82 12.5 13 19 1029.6 0.2 24.2 29.4 48.3 127.0 126.4 436.5
09/05 12:50 17 77 11.14 12.9 11 15 1029.7 0.2 24.8 29.8 49.3 129.5 129.7 448.2
09/05 12:40 16.4 79 11.03 12.7 15 17 1029.9 0.2 24.6 29.8 49.2 129.3 129.2 446.3
09/05 12:30 16.4 82 11.44 13.3 15 20 1030 0.2 25.5 30.5 51.0 134.0 135.0 466.6
09/05 12:20 16.8 81 11.58 13.5 11 13 1030.2 0.2 25.8 30.6 51.3 135.0 136.3 471.1
09/05 12:10 17.2 86 12.59 14.8 17 19 1030.4 0.2 27.9 32.2 55.5 146.1 150.1 519.3
09/05 12:00 16 85 11.58 13.5 13 19 1030.6 0.2 25.8 30.9 51.9 136.4 137.8 476.2
09/05 11:50 16 88 11.99 14 13 17 1030.7 0.2 26.7 31.6 53.7 141.2 143.7 496.9
09/05 11:40 16 88 11.99 14.1 15 17 1030.8 0.2 26.7 31.6 53.7 141.2 143.7 496.9
09/05 11:30 15.5 91 12.03 14 15 20 1030.9 0.2 26.8 31.9 54.2 142.7 145.2 502.3
09/05 11:20 15.4 92 12.09 14.2 15 19 1031 0.2 26.9 32.0 54.6 143.6 146.3 506.0
09/05 11:10 15.3 92 12.01 14 15 17 1031.1 0.2 26.8 31.9 54.3 142.8 145.4 502.6
09/05 11:00 15.6 91 12.1 14.1 15 20 1031.2 0.2 26.9 32.0 54.5 143.3 146.1 505.3
09/05 10:50 15.6 92 12.23 14.3 13 15 1031.1 0.2 27.2 32.2 55.0 144.9 148.0 511.9

Last Refresh: 10-May-2026 03:25:05

Bureau of Meteorology